createdAt,value
2019-03-13T00:00:09.717Z,4.03
2019-03-13T00:02:39.734Z,4.37
2019-03-13T00:05:09.879Z,3.80
2019-03-13T00:07:39.056Z,3.80
2019-03-13T00:10:08.476Z,3.20
2019-03-13T00:12:37.286Z,3.60
2019-03-13T00:15:06.888Z,3.27
2019-03-13T00:17:35.675Z,3.37
2019-03-13T00:20:04.759Z,3.47
2019-03-13T00:22:33.519Z,3.50
2019-03-13T00:25:02.341Z,3.70
2019-03-13T00:27:31.300Z,3.40
2019-03-13T00:30:00.366Z,3.83
2019-03-13T00:32:30.056Z,3.77
2019-03-13T00:34:59.106Z,3.90
2019-03-13T00:37:27.935Z,3.60
2019-03-13T00:39:56.807Z,3.97
2019-03-13T00:42:26.308Z,3.83
2019-03-13T00:44:55.205Z,4.17
2019-03-13T00:47:24.118Z,4.40
2019-03-13T00:49:52.901Z,3.70
2019-03-13T00:52:21.774Z,3.60
2019-03-13T00:54:50.705Z,3.70
2019-03-13T00:57:19.700Z,4.33
2019-03-13T00:59:48.515Z,4.37
2019-03-13T01:02:29.798Z,4.17
2019-03-13T01:05:12.461Z,3.97
2019-03-13T01:07:41.471Z,4.03
2019-03-13T01:10:10.374Z,4.30
2019-03-13T01:12:39.338Z,4.60
2019-03-13T01:15:08.185Z,4.93
2019-03-13T01:17:39.051Z,4.73
2019-03-13T01:20:07.688Z,4.80
2019-03-13T01:22:36.473Z,4.83
2019-03-13T01:25:05.475Z,4.73
2019-03-13T01:27:34.437Z,5.00
2019-03-13T01:30:03.479Z,5.40
2019-03-13T01:32:50.017Z,5.43
2019-03-13T01:35:41.413Z,5.03
2019-03-13T01:38:10.257Z,5.53
2019-03-13T01:40:39.088Z,5.53
2019-03-13T01:43:07.906Z,5.37
2019-03-13T01:45:36.666Z,5.80
2019-03-13T01:48:05.728Z,6.00
2019-03-13T01:50:34.487Z,5.70
2019-03-13T01:53:03.350Z,6.07
2019-03-13T01:55:32.372Z,6.30
2019-03-13T01:58:01.261Z,6.53
2019-03-13T02:00:30.149Z,6.87
2019-03-13T02:02:59.477Z,6.60
2019-03-13T02:05:28.280Z,6.13
2019-03-13T02:07:57.232Z,6.60
2019-03-13T02:10:25.979Z,5.87
2019-03-13T02:12:55.573Z,6.70
2019-03-13T02:15:24.533Z,6.53
2019-03-13T02:17:53.654Z,6.50
2019-03-13T02:20:22.751Z,6.07
2019-03-13T02:22:51.523Z,6.27
2019-03-13T02:25:20.530Z,6.20
2019-03-13T02:27:49.299Z,5.53
2019-03-13T02:30:18.526Z,5.23
2019-03-13T02:32:47.338Z,5.63
2019-03-13T02:35:16.303Z,5.30
2019-03-13T02:37:45.132Z,5.47
2019-03-13T02:40:14.076Z,5.40
2019-03-13T02:42:42.815Z,5.60
2019-03-13T02:45:11.724Z,5.60
2019-03-13T02:47:40.491Z,5.00
2019-03-13T02:50:09.951Z,4.50
2019-03-13T02:52:38.687Z,4.50
2019-03-13T02:55:08.017Z,4.80
2019-03-13T02:57:36.871Z,3.70
2019-03-13T03:00:07.589Z,3.40
2019-03-13T03:02:43.262Z,3.50
2019-03-13T03:05:12.078Z,3.70
2019-03-13T03:07:40.930Z,3.23
2019-03-13T03:10:10.411Z,3.77
2019-03-13T03:12:39.178Z,3.20
2019-03-13T03:15:09.740Z,3.40
2019-03-13T03:17:38.802Z,3.00
2019-03-13T03:20:09.979Z,2.80
2019-03-13T03:22:38.936Z,3.10
2019-03-13T03:25:08.538Z,2.90
2019-03-13T03:27:37.491Z,3.40
2019-03-13T03:30:06.737Z,2.93
2019-03-13T03:32:35.550Z,3.50
2019-03-13T03:35:04.764Z,2.80
2019-03-13T03:37:33.575Z,3.30
2019-03-13T03:40:02.525Z,2.93
2019-03-13T03:42:31.338Z,2.73
2019-03-13T03:45:00.256Z,2.77
2019-03-13T03:47:29.519Z,3.50
2019-03-13T03:49:58.277Z,2.77
2019-03-13T03:52:27.281Z,3.07
2019-03-13T03:54:56.108Z,2.77
2019-03-13T03:57:24.904Z,2.83
2019-03-13T03:59:54.054Z,2.90
2019-03-13T04:02:23.085Z,2.83
2019-03-13T04:04:51.961Z,2.63
2019-03-13T04:07:21.910Z,2.70
2019-03-13T04:09:50.821Z,2.57
2019-03-13T04:12:19.674Z,3.07
2019-03-13T04:14:48.549Z,2.50
2019-03-13T04:17:17.433Z,2.57
2019-03-13T04:19:46.969Z,3.83
2019-03-13T04:22:15.831Z,3.23
2019-03-13T04:24:44.700Z,2.60
2019-03-13T04:27:13.765Z,3.10
2019-03-13T04:29:42.743Z,3.17
2019-03-13T04:32:11.534Z,3.20
2019-03-13T04:34:40.574Z,3.07
2019-03-13T04:37:09.334Z,2.30
2019-03-13T04:39:38.226Z,3.53
2019-03-13T04:42:07.244Z,3.23
2019-03-13T04:44:36.322Z,2.97
2019-03-13T04:47:05.087Z,2.70
2019-03-13T04:49:33.943Z,3.37
2019-03-13T04:52:02.731Z,3.27
2019-03-13T04:54:31.580Z,2.60
2019-03-13T04:57:00.312Z,2.90
2019-03-13T04:59:29.306Z,2.47
2019-03-13T05:01:58.233Z,2.60
2019-03-13T05:04:27.019Z,2.50
2019-03-13T05:06:55.887Z,3.40
2019-03-13T05:09:42.323Z,2.70
2019-03-13T05:12:11.407Z,2.83
2019-03-13T05:14:40.347Z,2.50
2019-03-13T05:17:09.117Z,2.77
2019-03-13T05:19:37.918Z,3.57
2019-03-13T05:22:06.693Z,2.93
2019-03-13T05:24:37.991Z,2.70
2019-03-13T05:27:06.861Z,2.73
2019-03-13T05:29:35.945Z,4.47
2019-03-13T05:32:04.700Z,3.27
2019-03-13T05:34:33.751Z,2.93
2019-03-13T05:37:03.381Z,2.63
2019-03-13T05:39:32.275Z,2.80
2019-03-13T05:42:01.068Z,2.60
2019-03-13T05:44:30.084Z,2.80
2019-03-13T05:46:58.891Z,3.17
2019-03-13T05:49:27.779Z,3.10
2019-03-13T05:51:56.555Z,3.80
2019-03-13T05:54:25.382Z,3.10
2019-03-13T05:56:54.191Z,3.07
2019-03-13T05:59:23.053Z,3.33
2019-03-13T06:01:51.872Z,2.90
2019-03-13T06:04:20.768Z,2.57
2019-03-13T06:06:49.578Z,3.33
2019-03-13T06:09:18.477Z,3.17
2019-03-13T06:11:47.619Z,2.97
2019-03-13T06:14:16.610Z,2.70
2019-03-13T06:16:46.152Z,3.00
2019-03-13T06:19:14.999Z,2.73
2019-03-13T06:21:43.817Z,3.57
2019-03-13T06:24:12.956Z,3.07
2019-03-13T06:26:41.809Z,3.13
2019-03-13T06:29:10.575Z,2.67
2019-03-13T06:31:39.408Z,3.53
2019-03-13T06:34:11.309Z,3.03
2019-03-13T06:36:39.208Z,2.73
2019-03-13T06:39:08.114Z,3.07
2019-03-13T06:41:38.580Z,3.03
2019-03-13T06:44:07.575Z,2.50
2019-03-13T06:46:36.760Z,3.07
2019-03-13T06:49:06.416Z,2.93
2019-03-13T06:51:36.100Z,2.93
2019-03-13T06:54:05.206Z,3.53
2019-03-13T06:56:34.012Z,3.23
2019-03-13T06:59:13.540Z,3.33
2019-03-13T07:02:04.009Z,3.27
2019-03-13T07:04:50.602Z,3.63
2019-03-13T07:07:47.708Z,3.60
2019-03-13T07:10:31.282Z,3.13
2019-03-13T07:13:13.531Z,3.23
2019-03-13T07:16:10.540Z,3.33
2019-03-13T07:19:04.642Z,3.00
2019-03-13T07:21:51.937Z,3.40
2019-03-13T07:24:34.955Z,3.80
2019-03-13T07:27:25.562Z,3.50
2019-03-13T07:30:17.433Z,3.67
2019-03-13T07:32:57.040Z,3.47
2019-03-13T07:35:43.653Z,3.70
2019-03-13T07:38:46.952Z,4.03
2019-03-13T07:41:24.617Z,4.00
2019-03-13T07:44:05.334Z,3.43
2019-03-13T07:46:59.214Z,3.63
2019-03-13T07:49:54.267Z,4.00
2019-03-13T07:52:45.142Z,3.73
2019-03-13T07:55:19.011Z,3.83
2019-03-13T07:58:00.851Z,3.97
2019-03-13T08:00:48.898Z,3.90
2019-03-13T08:03:36.686Z,3.37
2019-03-13T08:06:26.371Z,3.50
2019-03-13T08:09:17.346Z,3.90
2019-03-13T08:12:11.414Z,3.63
2019-03-13T08:15:05.583Z,4.30
2019-03-13T08:17:43.921Z,4.10
2019-03-13T08:20:39.994Z,3.83
2019-03-13T08:23:26.555Z,4.03
2019-03-13T08:26:15.395Z,3.87
2019-03-13T08:28:56.591Z,4.77
2019-03-13T08:31:43.088Z,3.60
2019-03-13T08:34:24.035Z,3.13
2019-03-13T08:37:05.503Z,3.53
2019-03-13T08:39:55.439Z,3.93
2019-03-13T08:42:32.449Z,3.37
2019-03-13T08:45:32.420Z,3.33
2019-03-13T08:48:17.087Z,3.30
2019-03-13T08:51:20.253Z,3.00
2019-03-13T08:54:20.115Z,4.00
2019-03-13T08:57:03.852Z,3.93
2019-03-13T09:00:00.815Z,4.03
2019-03-13T09:02:48.620Z,3.77
2019-03-13T09:05:48.563Z,4.77
2019-03-13T09:08:36.482Z,3.90
2019-03-13T09:11:23.132Z,4.17
2019-03-13T09:14:17.123Z,3.83
2019-03-13T09:16:52.934Z,3.77
2019-03-13T09:19:39.426Z,4.27
2019-03-13T09:22:17.534Z,3.73
2019-03-13T09:25:11.815Z,4.00
2019-03-13T09:27:52.944Z,4.20
2019-03-13T09:30:49.816Z,3.40
2019-03-13T09:33:37.827Z,3.70
2019-03-13T09:36:32.236Z,4.00
2019-03-13T09:39:19.025Z,3.77
2019-03-13T09:42:00.378Z,3.47
2019-03-13T09:44:47.345Z,3.73
2019-03-13T09:47:35.111Z,4.37
2019-03-13T09:50:32.295Z,4.60
2019-03-13T09:53:17.010Z,3.97
2019-03-13T09:56:00.280Z,3.73
2019-03-13T09:58:46.340Z,4.00
2019-03-13T10:01:39.957Z,4.27
2019-03-13T10:04:24.838Z,4.50
2019-03-13T10:07:15.544Z,3.90
2019-03-13T10:10:06.769Z,3.67
2019-03-13T10:12:53.781Z,3.60
2019-03-13T10:15:37.250Z,3.47
2019-03-13T10:18:36.901Z,3.03
2019-03-13T10:21:34.365Z,3.33
2019-03-13T10:24:12.936Z,4.17
2019-03-13T10:27:03.036Z,3.47
2019-03-13T10:29:46.509Z,3.43
2019-03-13T10:32:21.479Z,3.50
2019-03-13T10:35:03.927Z,3.60
2019-03-13T10:37:43.432Z,3.10
2019-03-13T10:40:34.167Z,3.47
2019-03-13T10:43:16.249Z,3.83
2019-03-13T10:46:10.127Z,3.30
2019-03-13T10:48:53.178Z,3.30
2019-03-13T10:51:43.230Z,3.10
2019-03-13T10:54:19.773Z,3.17
2019-03-13T10:57:13.611Z,2.83
2019-03-13T10:59:50.409Z,3.33
2019-03-13T11:02:44.295Z,2.80
2019-03-13T11:05:40.987Z,3.53
2019-03-13T11:08:37.943Z,3.30
2019-03-13T11:11:37.882Z,3.77
2019-03-13T11:14:38.068Z,3.33
2019-03-13T11:17:17.091Z,3.70
2019-03-13T11:20:07.975Z,3.80
2019-03-13T11:23:04.718Z,3.93
2019-03-13T11:25:54.184Z,4.00
2019-03-13T11:28:28.655Z,3.40
2019-03-13T11:31:35.000Z,3.23
2019-03-13T11:34:21.546Z,3.60
2019-03-13T11:37:15.119Z,3.33
2019-03-13T11:39:51.031Z,3.10
2019-03-13T11:42:38.754Z,3.30
2019-03-13T11:45:15.713Z,3.60
2019-03-13T11:48:05.067Z,2.90
2019-03-13T11:50:48.304Z,3.10
2019-03-13T11:53:42.371Z,3.33
2019-03-13T11:56:29.492Z,2.90
2019-03-13T11:59:07.258Z,3.43
2019-03-13T12:01:46.038Z,3.30
2019-03-13T12:04:39.944Z,3.20
2019-03-13T12:07:37.866Z,4.33
2019-03-13T12:10:29.788Z,3.27
2019-03-13T12:13:10.536Z,3.20
2019-03-13T12:15:46.162Z,3.57
2019-03-13T12:18:49.650Z,3.23
2019-03-13T12:21:43.461Z,3.40
2019-03-13T12:24:34.149Z,3.93
2019-03-13T12:27:20.857Z,3.40
2019-03-13T12:30:05.825Z,3.37
2019-03-13T12:32:52.410Z,3.40
2019-03-13T12:35:49.145Z,3.30
2019-03-13T12:38:38.994Z,3.45
2019-03-13T12:41:26.836Z,3.50
2019-03-13T12:44:05.939Z,3.57
2019-03-13T12:46:53.750Z,3.87
2019-03-13T12:49:38.943Z,2.80
2019-03-13T12:52:27.738Z,3.33
2019-03-13T12:55:18.348Z,3.27
2019-03-13T12:58:05.160Z,3.00
2019-03-13T13:00:57.697Z,3.13
2019-03-13T13:03:43.722Z,3.13
2019-03-13T13:06:31.807Z,3.33
2019-03-13T13:09:32.029Z,2.80
2019-03-13T13:12:22.836Z,2.43
2019-03-13T13:14:57.632Z,2.30
2019-03-13T13:17:51.740Z,3.13
2019-03-13T13:20:23.921Z,2.73
2019-03-13T13:22:51.332Z,2.43
2019-03-13T13:25:20.115Z,2.23
2019-03-13T13:27:48.893Z,2.30
2019-03-13T13:30:17.913Z,2.50
2019-03-13T13:32:46.847Z,2.30
2019-03-13T13:35:15.731Z,2.50
2019-03-13T13:37:44.516Z,2.80
2019-03-13T13:40:13.778Z,2.60
2019-03-13T13:42:42.587Z,2.50
2019-03-13T13:45:33.126Z,2.60
2019-03-13T13:48:01.248Z,2.20
2019-03-13T13:50:30.036Z,2.53
2019-03-13T13:52:58.939Z,2.50
2019-03-13T13:55:27.867Z,3.13
2019-03-13T13:57:57.399Z,2.77
2019-03-13T14:00:26.190Z,2.87
2019-03-13T14:02:55.179Z,2.60
2019-03-13T14:05:24.087Z,2.60
2019-03-13T14:07:53.006Z,2.97
2019-03-13T14:10:21.938Z,2.70
2019-03-13T14:12:50.689Z,3.40
2019-03-13T14:15:19.724Z,3.10
2019-03-13T14:17:48.643Z,2.60
2019-03-13T14:20:17.491Z,3.10
2019-03-13T14:22:46.258Z,2.90
2019-03-13T14:25:15.167Z,2.40
2019-03-13T14:27:44.023Z,2.63
2019-03-13T14:30:13.187Z,2.30
2019-03-13T14:32:42.174Z,2.93
2019-03-13T14:35:11.045Z,2.73
2019-03-13T14:37:40.029Z,2.90
2019-03-13T14:40:10.616Z,2.80
2019-03-13T14:42:39.419Z,3.20
2019-03-13T14:45:08.812Z,3.00
2019-03-13T14:47:37.653Z,3.20
2019-03-13T14:50:06.968Z,2.90
2019-03-13T14:52:36.204Z,2.50
2019-03-13T14:55:05.572Z,2.80
2019-03-13T14:57:34.644Z,3.00
2019-03-13T15:00:05.502Z,2.87
2019-03-13T15:02:34.314Z,2.83
2019-03-13T15:05:03.294Z,2.67
2019-03-13T15:07:32.143Z,2.40
2019-03-13T15:10:01.623Z,3.23
2019-03-13T15:12:30.465Z,2.37
2019-03-13T15:14:59.560Z,1.90
2019-03-13T15:17:28.384Z,2.10
2019-03-13T15:19:57.475Z,2.07
2019-03-13T15:22:26.441Z,2.77
2019-03-13T15:24:55.184Z,2.23
2019-03-13T15:27:24.139Z,1.90
2019-03-13T15:29:52.994Z,2.17
2019-03-13T15:32:21.912Z,1.97
2019-03-13T15:34:51.451Z,2.13
2019-03-13T15:37:20.317Z,2.30
2019-03-13T15:39:49.172Z,1.80
2019-03-13T15:42:18.153Z,2.03
2019-03-13T15:44:48.524Z,1.90
2019-03-13T15:47:17.300Z,2.50
2019-03-13T15:49:46.093Z,2.23
2019-03-13T15:52:14.930Z,1.80
2019-03-13T15:54:43.704Z,1.90
2019-03-13T15:57:13.220Z,2.10
2019-03-13T15:59:42.084Z,2.20
2019-03-13T16:02:10.898Z,2.40
2019-03-13T16:04:39.876Z,2.03
2019-03-13T16:07:08.907Z,1.90
2019-03-13T16:09:37.953Z,2.30
2019-03-13T16:12:06.734Z,2.00
2019-03-13T16:14:35.562Z,1.90
2019-03-13T16:17:04.395Z,2.17
2019-03-13T16:19:33.642Z,2.10
2019-03-13T16:22:03.198Z,2.30
2019-03-13T16:24:32.268Z,2.10
2019-03-13T16:27:01.204Z,1.80
2019-03-13T16:29:31.079Z,2.57
2019-03-13T16:32:00.039Z,2.03
2019-03-13T16:34:28.988Z,2.23
2019-03-13T16:36:57.967Z,2.30
2019-03-13T16:39:26.871Z,2.13
2019-03-13T16:41:56.079Z,2.53
2019-03-13T16:44:25.028Z,1.80
2019-03-13T16:46:54.007Z,2.77
2019-03-13T16:49:24.146Z,2.13
2019-03-13T16:51:53.209Z,2.70
2019-03-13T16:54:21.970Z,2.00
2019-03-13T16:56:50.807Z,2.20
2019-03-13T16:59:19.722Z,2.10
2019-03-13T17:01:48.836Z,2.40
2019-03-13T17:04:17.701Z,2.50
2019-03-13T17:06:46.639Z,2.40
2019-03-13T17:09:15.484Z,2.30
2019-03-13T17:11:44.487Z,2.17
2019-03-13T17:14:13.374Z,2.13
2019-03-13T17:16:42.561Z,2.10
2019-03-13T17:19:11.398Z,2.50
2019-03-13T17:21:40.484Z,2.27
2019-03-13T17:24:11.211Z,2.53
2019-03-13T17:26:41.614Z,2.43
2019-03-13T17:29:10.776Z,2.93
2019-03-13T17:31:39.782Z,3.00
2019-03-13T17:34:08.777Z,2.37
2019-03-13T17:36:37.717Z,2.43
2019-03-13T17:39:07.523Z,2.73
2019-03-13T17:41:36.607Z,2.67
2019-03-13T17:44:05.880Z,2.80
2019-03-13T17:46:34.828Z,3.47
2019-03-13T17:49:03.890Z,3.17
2019-03-13T17:51:33.174Z,5.10
2019-03-13T17:54:02.044Z,2.47
2019-03-13T17:56:30.975Z,3.00
2019-03-13T17:58:59.882Z,3.90
2019-03-13T18:01:28.961Z,3.17
2019-03-13T18:03:58.300Z,2.80
2019-03-13T18:06:27.141Z,2.70
2019-03-13T18:08:56.050Z,2.90
2019-03-13T18:11:24.887Z,3.40
2019-03-13T18:13:53.774Z,2.80
2019-03-13T18:16:22.897Z,2.40
2019-03-13T18:18:51.977Z,2.30
2019-03-13T18:21:20.929Z,2.30
2019-03-13T18:23:50.287Z,2.00
2019-03-13T18:26:19.352Z,1.97
2019-03-13T18:28:48.472Z,2.63
2019-03-13T18:31:17.411Z,2.23
2019-03-13T18:33:46.371Z,1.67
2019-03-13T18:36:15.481Z,2.37
2019-03-13T18:38:44.664Z,2.13
2019-03-13T18:41:13.499Z,2.43
2019-03-13T18:43:42.333Z,2.10
2019-03-13T18:46:11.366Z,2.30
2019-03-13T18:48:40.449Z,2.30
2019-03-13T18:51:13.431Z,2.30
2019-03-13T18:53:41.296Z,2.50
2019-03-13T18:56:10.187Z,2.40
2019-03-13T18:58:39.135Z,2.60
2019-03-13T19:01:08.108Z,2.13
2019-03-13T19:03:36.958Z,3.10
2019-03-13T19:06:06.010Z,2.03
2019-03-13T19:08:34.857Z,2.50
2019-03-13T19:11:04.042Z,3.03
2019-03-13T19:13:32.810Z,2.37
2019-03-13T19:16:01.761Z,2.30
2019-03-13T19:18:30.641Z,2.20
2019-03-13T19:20:59.672Z,2.30
2019-03-13T19:23:28.851Z,2.83
2019-03-13T19:25:58.591Z,2.30
2019-03-13T19:28:27.602Z,2.50
2019-03-13T19:30:56.573Z,3.03
2019-03-13T19:33:25.547Z,2.83
2019-03-13T19:35:54.672Z,2.30
2019-03-13T19:38:23.647Z,3.07
2019-03-13T19:40:52.473Z,2.40
2019-03-13T19:43:21.386Z,3.10
2019-03-13T19:45:50.463Z,2.87
2019-03-13T19:48:19.597Z,3.10
2019-03-13T19:50:48.653Z,2.83
2019-03-13T19:53:17.615Z,2.43
2019-03-13T19:55:46.491Z,3.13
2019-03-13T19:58:15.603Z,2.63
2019-03-13T20:00:44.444Z,2.50
2019-03-13T20:03:13.516Z,3.13
2019-03-13T20:05:45.861Z,2.90
2019-03-13T20:08:13.912Z,2.70
2019-03-13T20:10:43.367Z,2.83
2019-03-13T20:13:12.468Z,2.67
2019-03-13T20:15:41.603Z,2.87
2019-03-13T20:18:10.859Z,2.83
2019-03-13T20:20:39.959Z,2.73
2019-03-13T20:23:09.380Z,2.70
2019-03-13T20:25:38.577Z,2.40
2019-03-13T20:28:07.735Z,3.23
2019-03-13T20:30:36.664Z,2.87
2019-03-13T20:33:05.794Z,3.40
2019-03-13T20:35:36.750Z,2.60
2019-03-13T20:38:05.331Z,3.00
2019-03-13T20:40:34.252Z,3.00
2019-03-13T20:43:03.400Z,3.43
2019-03-13T20:45:32.590Z,3.37
2019-03-13T20:48:01.807Z,2.80
2019-03-13T20:50:37.268Z,3.20
2019-03-13T20:53:01.239Z,3.20
2019-03-13T20:55:30.255Z,3.10
2019-03-13T20:57:59.338Z,5.90
2019-03-13T21:00:28.839Z,2.83
2019-03-13T21:02:57.955Z,2.87
2019-03-13T21:05:27.083Z,3.47
2019-03-13T21:07:55.969Z,2.97
2019-03-13T21:10:25.117Z,3.20
2019-03-13T21:12:53.936Z,3.23
2019-03-13T21:15:23.629Z,3.80
2019-03-13T21:17:53.988Z,3.83
2019-03-13T21:20:23.339Z,3.80
2019-03-13T21:22:53.203Z,3.93
2019-03-13T21:25:22.447Z,3.47
2019-03-13T21:27:51.791Z,3.30
2019-03-13T21:30:21.696Z,3.63
2019-03-13T21:32:51.007Z,3.20
2019-03-13T21:35:20.278Z,3.63
2019-03-13T21:37:49.315Z,3.23
2019-03-13T21:40:18.194Z,3.30
2019-03-13T21:42:47.277Z,3.43
2019-03-13T21:45:22.430Z,3.27
2019-03-13T21:47:47.215Z,3.33
2019-03-13T21:50:16.258Z,4.50
2019-03-13T21:52:45.161Z,3.30
2019-03-13T21:55:13.995Z,3.03
2019-03-13T21:57:43.070Z,4.37
2019-03-13T22:00:13.868Z,3.80
2019-03-13T22:02:42.695Z,3.80
2019-03-13T22:05:24.684Z,3.53
2019-03-13T22:07:43.474Z,3.73
2019-03-13T22:10:12.687Z,3.67
2019-03-13T22:12:41.708Z,4.10
2019-03-13T22:15:11.515Z,3.37
2019-03-13T22:17:40.460Z,3.10
2019-03-13T22:20:11.422Z,3.53
2019-03-13T22:22:40.739Z,3.13
2019-03-13T22:25:10.283Z,3.33
2019-03-13T22:27:39.584Z,4.70
2019-03-13T22:30:10.131Z,3.50
2019-03-13T22:32:38.948Z,3.40
2019-03-13T22:35:07.922Z,3.40
2019-03-13T22:37:36.726Z,3.17
2019-03-13T22:40:06.319Z,3.77
2019-03-13T22:42:35.568Z,3.90
2019-03-13T22:45:07.322Z,3.10
2019-03-13T22:47:42.528Z,3.17
2019-03-13T22:50:06.388Z,2.97
2019-03-13T22:52:36.446Z,3.20
2019-03-13T22:55:05.926Z,4.20
2019-03-13T22:57:34.780Z,3.50
2019-03-13T23:00:04.660Z,3.40
2019-03-13T23:02:33.453Z,3.50
2019-03-13T23:05:02.363Z,3.87
2019-03-13T23:07:32.426Z,3.00
2019-03-13T23:10:02.086Z,3.43
2019-03-13T23:12:31.091Z,3.40
2019-03-13T23:14:59.998Z,3.43
2019-03-13T23:17:29.335Z,3.13
2019-03-13T23:19:58.117Z,2.93
2019-03-13T23:22:27.098Z,4.00
2019-03-13T23:24:55.962Z,3.10
2019-03-13T23:27:24.810Z,3.00
2019-03-13T23:29:53.605Z,3.60
2019-03-13T23:32:22.863Z,4.10
2019-03-13T23:34:51.839Z,3.00
2019-03-13T23:37:20.698Z,3.47
2019-03-13T23:39:49.441Z,2.83
2019-03-13T23:42:18.426Z,4.35
2019-03-13T23:44:47.440Z,3.63
2019-03-13T23:47:16.321Z,3.03
2019-03-13T23:49:45.271Z,3.53
2019-03-13T23:52:14.031Z,4.40
2019-03-13T23:54:42.806Z,3.63
2019-03-13T23:57:11.851Z,4.13
2019-03-13T23:59:40.866Z,3.77
